sensor_id;sensor_type;location;lat;lon;timestamp;noise_LAeq;noise_LA_min;noise_LA_max;noise_LA01;noise_LA95
72736;Laerm;60856;53.238;10.448;2023-04-15T04:31:55;46.80;45.30;50.26;;
72736;Laerm;60856;53.238;10.448;2023-04-15T04:34:20;47.27;45.45;52.03;;
72736;Laerm;60856;53.238;10.448;2023-04-15T04:36:45;47.33;45.43;54.11;;
72736;Laerm;60856;53.238;10.448;2023-04-15T04:39:10;46.89;45.33;50.05;;
72736;Laerm;60856;53.238;10.448;2023-04-15T04:41:36;47.29;45.64;50.28;;
72736;Laerm;60856;53.238;10.448;2023-04-15T04:44:01;47.16;45.54;49.95;;
72736;Laerm;60856;53.238;10.448;2023-04-15T04:46:26;47.01;45.40;53.61;;
72736;Laerm;60856;53.238;10.448;2023-04-15T04:48:51;46.99;45.50;50.84;;
72736;Laerm;60856;53.238;10.448;2023-04-15T04:51:17;47.29;45.28;55.69;;
72736;Laerm;60856;53.238;10.448;2023-04-15T04:53:42;47.08;45.28;55.23;;
72736;Laerm;60856;53.238;10.448;2023-04-15T04:56:07;47.23;45.42;54.02;;
72736;Laerm;60856;53.238;10.448;2023-04-15T04:58:32;46.63;45.30;50.41;;
72736;Laerm;60856;53.238;10.448;2023-04-15T05:00:58;46.76;45.25;52.63;;
72736;Laerm;60856;53.238;10.448;2023-04-15T05:03:23;47.05;45.48;53.12;;
72736;Laerm;60856;53.238;10.448;2023-04-15T05:05:48;47.80;45.62;55.02;;
72736;Laerm;60856;53.238;10.448;2023-04-15T05:08:14;46.88;45.42;50.30;;
72736;Laerm;60856;53.238;10.448;2023-04-15T05:10:40;46.89;45.40;51.20;;
72736;Laerm;60856;53.238;10.448;2023-04-15T05:13:05;46.87;45.30;49.76;;
72736;Laerm;60856;53.238;10.448;2023-04-15T05:15:30;46.82;45.34;50.03;;
72736;Laerm;60856;53.238;10.448;2023-04-15T05:17:56;46.62;45.20;49.66;;
72736;Laerm;60856;53.238;10.448;2023-04-15T05:20:21;46.77;45.48;50.00;;
72736;Laerm;60856;53.238;10.448;2023-04-15T05:22:47;46.79;45.51;50.08;;
72736;Laerm;60856;53.238;10.448;2023-04-15T05:25:12;46.73;45.38;49.52;;
72736;Laerm;60856;53.238;10.448;2023-04-15T05:27:37;46.62;45.29;49.66;;
72736;Laerm;60856;53.238;10.448;2023-04-15T05:30:03;46.62;45.39;49.79;;
72736;Laerm;60856;53.238;10.448;2023-04-15T05:32:28;46.76;45.38;49.68;;
72736;Laerm;60856;53.238;10.448;2023-04-15T05:34:53;47.03;45.41;53.71;;
72736;Laerm;60856;53.238;10.448;2023-04-15T05:37:19;47.14;45.60;51.66;;
72736;Laerm;60856;53.238;10.448;2023-04-15T05:39:46;47.44;45.59;54.52;;
72736;Laerm;60856;53.238;10.448;2023-04-15T05:42:12;46.92;45.38;50.47;;
72736;Laerm;60856;53.238;10.448;2023-04-15T05:44:37;46.87;45.51;50.49;;
72736;Laerm;60856;53.238;10.448;2023-04-15T05:47:03;47.14;45.42;56.71;;
72736;Laerm;60856;53.238;10.448;2023-04-15T05:49:30;47.51;45.48;56.36;;
72736;Laerm;60856;53.238;10.448;2023-04-15T05:51:56;47.00;45.58;50.83;;
72736;Laerm;60856;53.238;10.448;2023-04-15T05:54:21;46.77;45.36;54.39;;
72736;Laerm;60856;53.238;10.448;2023-04-15T05:56:47;46.92;45.46;50.01;;
72736;Laerm;60856;53.238;10.448;2023-04-15T05:59:12;47.00;45.55;54.32;;
72736;Laerm;60856;53.238;10.448;2023-04-15T06:04:40;46.97;45.53;53.70;;
72736;Laerm;60856;53.238;10.448;2023-04-15T06:07:06;47.26;45.40;55.15;;
72736;Laerm;60856;53.238;10.448;2023-04-15T06:09:31;46.93;45.05;53.53;;
72736;Laerm;60856;53.238;10.448;2023-04-15T06:11:57;46.92;45.40;55.28;;
72736;Laerm;60856;53.238;10.448;2023-04-15T06:14:22;47.00;45.37;52.50;;
72736;Laerm;60856;53.238;10.448;2023-04-15T06:16:48;47.05;45.42;50.36;;
72736;Laerm;60856;53.238;10.448;2023-04-15T06:19:13;47.80;45.50;53.52;;
72736;Laerm;60856;53.238;10.448;2023-04-15T06:21:38;47.01;45.48;50.19;;
72736;Laerm;60856;53.238;10.448;2023-04-15T06:24:04;47.36;45.34;53.52;;
72736;Laerm;60856;53.238;10.448;2023-04-15T06:26:29;51.49;45.32;60.84;;
72736;Laerm;60856;53.238;10.448;2023-04-15T06:28:55;46.75;45.40;51.36;;
72736;Laerm;60856;53.238;10.448;2023-04-15T06:31:21;46.94;45.36;52.25;;
72736;Laerm;60856;53.238;10.448;2023-04-15T06:33:46;47.08;45.47;50.07;;
72736;Laerm;60856;53.238;10.448;2023-04-15T06:36:11;47.09;45.56;51.03;;
72736;Laerm;60856;53.238;10.448;2023-04-15T06:38:36;47.00;45.55;53.14;;
72736;Laerm;60856;53.238;10.448;2023-04-15T06:41:02;46.89;45.34;50.72;;
72736;Laerm;60856;53.238;10.448;2023-04-15T06:43:27;46.69;45.28;52.19;;
72736;Laerm;60856;53.238;10.448;2023-04-15T06:45:52;46.61;45.23;51.93;;
72736;Laerm;60856;53.238;10.448;2023-04-15T06:48:18;46.69;45.39;52.91;;
72736;Laerm;60856;53.238;10.448;2023-04-15T06:50:43;46.80;45.50;51.24;;
72736;Laerm;60856;53.238;10.448;2023-04-15T06:53:08;46.83;45.57;50.45;;
72736;Laerm;60856;53.238;10.448;2023-04-15T06:55:33;46.80;45.50;49.95;;
72736;Laerm;60856;53.238;10.448;2023-04-15T06:57:59;46.67;45.38;49.41;;
72736;Laerm;60856;53.238;10.448;2023-04-15T07:00:24;46.84;45.43;50.22;;
72736;Laerm;60856;53.238;10.448;2023-04-15T07:02:50;46.74;45.34;51.44;;
72736;Laerm;60856;53.238;10.448;2023-04-15T07:05:15;46.89;45.42;51.47;;
72736;Laerm;60856;53.238;10.448;2023-04-15T07:07:40;47.04;45.44;51.10;;
72736;Laerm;60856;53.238;10.448;2023-04-15T07:10:06;46.80;45.45;50.85;;
72736;Laerm;60856;53.238;10.448;2023-04-15T07:12:31;46.79;45.27;50.20;;
72736;Laerm;60856;53.238;10.448;2023-04-15T07:14:57;46.77;45.35;50.46;;
72736;Laerm;60856;53.238;10.448;2023-04-15T07:17:22;46.75;45.47;49.76;;
72736;Laerm;60856;53.238;10.448;2023-04-15T07:19:47;46.77;45.39;49.64;;
72736;Laerm;60856;53.238;10.448;2023-04-15T07:22:13;46.77;45.45;50.23;;
72736;Laerm;60856;53.238;10.448;2023-04-15T07:24:38;46.69;45.31;49.84;;
72736;Laerm;60856;53.238;10.448;2023-04-15T07:27:03;46.67;45.14;49.79;;
72736;Laerm;60856;53.238;10.448;2023-04-15T07:29:29;46.71;45.30;50.25;;
72736;Laerm;60856;53.238;10.448;2023-04-15T07:31:54;46.73;45.38;49.74;;
72736;Laerm;60856;53.238;10.448;2023-04-15T07:34:21;46.79;45.24;50.80;;
72736;Laerm;60856;53.238;10.448;2023-04-15T07:36:46;47.42;45.51;51.82;;
72736;Laerm;60856;53.238;10.448;2023-04-15T07:39:14;47.30;45.30;56.43;;
72736;Laerm;60856;53.238;10.448;2023-04-15T07:41:39;47.37;45.73;50.39;;
72736;Laerm;60856;53.238;10.448;2023-04-15T07:44:05;46.87;45.44;50.29;;
72736;Laerm;60856;53.238;10.448;2023-04-15T07:46:30;46.88;45.45;50.87;;
72736;Laerm;60856;53.238;10.448;2023-04-15T07:48:55;46.71;45.50;49.64;;
72736;Laerm;60856;53.238;10.448;2023-04-15T07:51:21;46.77;45.34;52.76;;
72736;Laerm;60856;53.238;10.448;2023-04-15T07:53:47;46.68;45.38;50.63;;
72736;Laerm;60856;53.238;10.448;2023-04-15T07:56:14;46.89;45.49;50.62;;
72736;Laerm;60856;53.238;10.448;2023-04-15T07:58:39;46.80;45.43;49.24;;
72736;Laerm;60856;53.238;10.448;2023-04-15T08:01:05;47.05;45.00;51.88;;
72736;Laerm;60856;53.238;10.448;2023-04-15T08:03:30;46.94;45.31;50.57;;
72736;Laerm;60856;53.238;10.448;2023-04-15T08:05:57;47.82;45.48;53.00;;
72736;Laerm;60856;53.238;10.448;2023-04-15T08:08:22;46.69;45.41;49.91;;
72736;Laerm;60856;53.238;10.448;2023-04-15T08:10:48;46.65;45.36;49.83;;
72736;Laerm;60856;53.238;10.448;2023-04-15T08:13:13;46.65;45.41;49.28;;
72736;Laerm;60856;53.238;10.448;2023-04-15T08:15:39;46.73;45.24;49.67;;
72736;Laerm;60856;53.238;10.448;2023-04-15T08:18:04;46.81;45.53;50.04;;
72736;Laerm;60856;53.238;10.448;2023-04-15T08:20:30;46.82;45.57;50.24;;
72736;Laerm;60856;53.238;10.448;2023-04-15T08:22:55;46.86;45.52;50.16;;
72736;Laerm;60856;53.238;10.448;2023-04-15T08:25:21;46.81;45.42;50.02;;
72736;Laerm;60856;53.238;10.448;2023-04-15T08:27:46;46.73;45.35;50.21;;
72736;Laerm;60856;53.238;10.448;2023-04-15T08:30:12;47.08;45.38;52.86;;
72736;Laerm;60856;53.238;10.448;2023-04-15T08:32:37;46.80;45.33;50.16;;
72736;Laerm;60856;53.238;10.448;2023-04-15T08:35:02;46.71;45.34;52.15;;
72736;Laerm;60856;53.238;10.448;2023-04-15T08:37:28;46.81;45.32;51.82;;
72736;Laerm;60856;53.238;10.448;2023-04-15T08:39:53;47.03;45.40;54.89;;
72736;Laerm;60856;53.238;10.448;2023-04-15T08:42:21;47.32;45.58;53.73;;
72736;Laerm;60856;53.238;10.448;2023-04-15T08:44:47;46.84;45.42;50.09;;
72736;Laerm;60856;53.238;10.448;2023-04-15T08:47:13;46.87;45.42;51.48;;
72736;Laerm;60856;53.238;10.448;2023-04-15T08:49:41;46.68;45.26;49.90;;
72736;Laerm;60856;53.238;10.448;2023-04-15T08:52:07;46.60;45.24;49.90;;
72736;Laerm;60856;53.238;10.448;2023-04-15T08:54:33;46.68;45.42;49.77;;
72736;Laerm;60856;53.238;10.448;2023-04-15T08:56:58;46.67;45.18;49.78;;
72736;Laerm;60856;53.238;10.448;2023-04-15T08:59:24;46.70;45.27;49.94;;
72736;Laerm;60856;53.238;10.448;2023-04-15T09:01:49;46.73;45.11;50.35;;
72736;Laerm;60856;53.238;10.448;2023-04-15T09:04:15;47.04;45.38;57.10;;
72736;Laerm;60856;53.238;10.448;2023-04-15T09:06:41;47.22;45.60;56.12;;
72736;Laerm;60856;53.238;10.448;2023-04-15T09:09:06;47.12;45.39;52.62;;
72736;Laerm;60856;53.238;10.448;2023-04-15T09:11:32;47.07;45.40;53.61;;
72736;Laerm;60856;53.238;10.448;2023-04-15T09:13:57;46.86;45.33;49.66;;
72736;Laerm;60856;53.238;10.448;2023-04-15T09:16:22;46.84;45.44;50.35;;
72736;Laerm;60856;53.238;10.448;2023-04-15T09:18:48;46.85;45.42;50.90;;
72736;Laerm;60856;53.238;10.448;2023-04-15T09:21:14;46.75;45.37;50.33;;
72736;Laerm;60856;53.238;10.448;2023-04-15T09:23:41;46.79;45.53;50.56;;
72736;Laerm;60856;53.238;10.448;2023-04-15T09:26:17;47.04;45.29;50.83;;
72736;Laerm;60856;53.238;10.448;2023-04-15T09:28:42;47.11;45.51;50.63;;
72736;Laerm;60856;53.238;10.448;2023-04-15T09:31:08;47.10;45.57;50.64;;
72736;Laerm;60856;53.238;10.448;2023-04-15T09:33:34;46.94;45.20;51.16;;
72736;Laerm;60856;53.238;10.448;2023-04-15T09:36:00;49.51;45.51;53.73;;
72736;Laerm;60856;53.238;10.448;2023-04-15T09:38:26;46.68;45.50;49.86;;
72736;Laerm;60856;53.238;10.448;2023-04-15T09:40:52;47.07;45.39;53.07;;
72736;Laerm;60856;53.238;10.448;2023-04-15T09:43:17;46.73;45.38;49.64;;
72736;Laerm;60856;53.238;10.448;2023-04-15T09:45:46;46.74;45.26;50.10;;
72736;Laerm;60856;53.238;10.448;2023-04-15T09:50:41;46.99;45.46;50.04;;
72736;Laerm;60856;53.238;10.448;2023-04-15T09:53:08;46.75;45.51;50.55;;
72736;Laerm;60856;53.238;10.448;2023-04-15T09:55:33;46.82;45.42;50.16;;
72736;Laerm;60856;53.238;10.448;2023-04-15T09:57:58;46.99;45.45;50.95;;
72736;Laerm;60856;53.238;10.448;2023-04-15T10:00:23;47.12;45.48;53.93;;
72736;Laerm;60856;53.238;10.448;2023-04-15T10:02:49;47.02;45.29;54.18;;
72736;Laerm;60856;53.238;10.448;2023-04-15T10:05:15;46.74;45.41;50.04;;
72736;Laerm;60856;53.238;10.448;2023-04-15T10:07:43;46.70;45.31;49.49;;
72736;Laerm;60856;53.238;10.448;2023-04-15T10:10:11;46.71;45.30;50.12;;
72736;Laerm;60856;53.238;10.448;2023-04-15T10:12:37;46.70;45.33;49.89;;
72736;Laerm;60856;53.238;10.448;2023-04-15T10:15:04;46.81;45.41;50.46;;
72736;Laerm;60856;53.238;10.448;2023-04-15T10:17:31;46.67;45.25;50.69;;
72736;Laerm;60856;53.238;10.448;2023-04-15T10:20:01;46.76;45.31;50.33;;
72736;Laerm;60856;53.238;10.448;2023-04-15T10:22:30;46.68;45.39;50.34;;
72736;Laerm;60856;53.238;10.448;2023-04-15T10:24:56;46.67;45.27;49.91;;
72736;Laerm;60856;53.238;10.448;2023-04-15T10:27:22;46.69;45.43;49.78;;
72736;Laerm;60856;53.238;10.448;2023-04-15T10:29:48;46.71;45.46;49.71;;
72736;Laerm;60856;53.238;10.448;2023-04-15T10:32:13;46.90;45.27;50.00;;
72736;Laerm;60856;53.238;10.448;2023-04-15T10:34:40;46.83;45.30;49.98;;
72736;Laerm;60856;53.238;10.448;2023-04-15T10:37:08;46.81;45.46;50.25;;
72736;Laerm;60856;53.238;10.448;2023-04-15T10:42:05;46.67;45.31;49.89;;
72736;Laerm;60856;53.238;10.448;2023-04-15T10:44:31;46.87;45.29;55.93;;
72736;Laerm;60856;53.238;10.448;2023-04-15T10:46:56;46.94;45.55;51.19;;
72736;Laerm;60856;53.238;10.448;2023-04-15T10:49:25;46.68;45.35;49.77;;
72736;Laerm;60856;53.238;10.448;2023-04-15T10:51:51;46.68;45.34;49.79;;
72736;Laerm;60856;53.238;10.448;2023-04-15T10:56:50;46.77;45.43;50.17;;
72736;Laerm;60856;53.238;10.448;2023-04-15T10:59:16;46.83;45.45;49.62;;
72736;Laerm;60856;53.238;10.448;2023-04-15T11:02:00;47.13;45.61;50.04;;
72736;Laerm;60856;53.238;10.448;2023-04-15T11:07:10;46.76;45.25;49.84;;
72736;Laerm;60856;53.238;10.448;2023-04-15T11:09:35;46.70;45.40;49.86;;
72736;Laerm;60856;53.238;10.448;2023-04-15T11:12:04;46.69;45.41;49.93;;
72736;Laerm;60856;53.238;10.448;2023-04-15T11:14:31;46.90;45.59;50.19;;
72736;Laerm;60856;53.238;10.448;2023-04-15T11:16:57;46.76;45.42;49.88;;
72736;Laerm;60856;53.238;10.448;2023-04-15T11:19:22;46.84;45.40;49.86;;
72736;Laerm;60856;53.238;10.448;2023-04-15T11:21:47;46.80;45.37;50.62;;
72736;Laerm;60856;53.238;10.448;2023-04-15T11:24:22;46.66;45.18;50.51;;
72736;Laerm;60856;53.238;10.448;2023-04-15T11:26:50;46.78;45.30;49.89;;
72736;Laerm;60856;53.238;10.448;2023-04-15T11:29:21;46.78;45.13;50.52;;
72736;Laerm;60856;53.238;10.448;2023-04-15T11:31:47;46.67;45.38;49.85;;
72736;Laerm;60856;53.238;10.448;2023-04-15T11:34:21;46.68;45.22;49.66;;
72736;Laerm;60856;53.238;10.448;2023-04-15T11:36:46;46.64;45.26;49.67;;
72736;Laerm;60856;53.238;10.448;2023-04-15T11:39:12;46.70;45.23;49.70;;
72736;Laerm;60856;53.238;10.448;2023-04-15T11:41:37;46.67;45.33;49.83;;
72736;Laerm;60856;53.238;10.448;2023-04-15T11:44:15;46.74;45.30;49.75;;
72736;Laerm;60856;53.238;10.448;2023-04-15T11:46:40;47.13;45.31;57.78;;
72736;Laerm;60856;53.238;10.448;2023-04-15T11:49:05;46.91;45.41;51.84;;
72736;Laerm;60856;53.238;10.448;2023-04-15T11:51:31;46.89;45.39;52.23;;
72736;Laerm;60856;53.238;10.448;2023-04-15T11:53:56;47.04;45.49;52.99;;
72736;Laerm;60856;53.238;10.448;2023-04-15T11:56:23;46.85;45.42;52.08;;
72736;Laerm;60856;53.238;10.448;2023-04-15T11:58:52;47.16;45.44;59.88;;
72736;Laerm;60856;53.238;10.448;2023-04-15T12:01:17;46.88;45.43;50.52;;
72736;Laerm;60856;53.238;10.448;2023-04-15T12:03:46;47.12;45.41;50.70;;
72736;Laerm;60856;53.238;10.448;2023-04-15T12:11:26;47.44;45.46;54.52;;
72736;Laerm;60856;53.238;10.448;2023-04-15T12:13:56;47.34;45.60;51.39;;
72736;Laerm;60856;53.238;10.448;2023-04-15T12:16:22;46.78;45.05;50.41;;
72736;Laerm;60856;53.238;10.448;2023-04-15T12:18:54;46.90;45.39;50.70;;
72736;Laerm;60856;53.238;10.448;2023-04-15T12:21:23;46.71;45.29;50.02;;
72736;Laerm;60856;53.238;10.448;2023-04-15T12:23:52;47.06;45.38;52.52;;
72736;Laerm;60856;53.238;10.448;2023-04-15T12:26:24;46.86;45.51;50.94;;
72736;Laerm;60856;53.238;10.448;2023-04-15T12:28:52;47.08;45.47;50.84;;
72736;Laerm;60856;53.238;10.448;2023-04-15T12:31:18;46.72;45.32;50.41;;
72736;Laerm;60856;53.238;10.448;2023-04-15T12:33:46;46.93;45.18;49.98;;
72736;Laerm;60856;53.238;10.448;2023-04-15T12:36:12;47.01;45.24;53.36;;
72736;Laerm;60856;53.238;10.448;2023-04-15T12:38:37;47.79;45.52;54.54;;
72736;Laerm;60856;53.238;10.448;2023-04-15T12:43:48;47.03;45.38;56.45;;
72736;Laerm;60856;53.238;10.448;2023-04-15T12:52:19;47.18;45.09;51.85;;
72736;Laerm;60856;53.238;10.448;2023-04-15T12:54:44;48.53;45.80;56.80;;
72736;Laerm;60856;53.238;10.448;2023-04-15T12:57:10;48.14;45.64;56.47;;
72736;Laerm;60856;53.238;10.448;2023-04-15T12:59:35;47.17;45.30;55.08;;
72736;Laerm;60856;53.238;10.448;2023-04-15T13:02:03;47.14;45.45;53.70;;
72736;Laerm;60856;53.238;10.448;2023-04-15T13:04:28;46.96;45.35;55.37;;
72736;Laerm;60856;53.238;10.448;2023-04-15T13:06:54;47.03;45.33;51.95;;
72736;Laerm;60856;53.238;10.448;2023-04-15T13:09:20;46.86;45.28;52.04;;
72736;Laerm;60856;53.238;10.448;2023-04-15T13:11:45;47.42;45.62;51.68;;
72736;Laerm;60856;53.238;10.448;2023-04-15T13:14:10;46.96;45.51;50.22;;
72736;Laerm;60856;53.238;10.448;2023-04-15T13:16:36;47.20;45.60;50.05;;
72736;Laerm;60856;53.238;10.448;2023-04-15T13:19:02;47.49;46.00;50.54;;
72736;Laerm;60856;53.238;10.448;2023-04-15T13:21:27;47.15;45.44;53.49;;
72736;Laerm;60856;53.238;10.448;2023-04-15T13:23:53;49.06;45.46;58.56;;
72736;Laerm;60856;53.238;10.448;2023-04-15T13:26:18;49.54;45.63;60.32;;
72736;Laerm;60856;53.238;10.448;2023-04-15T13:28:43;47.49;45.64;53.00;;
72736;Laerm;60856;53.238;10.448;2023-04-15T13:31:09;50.46;45.85;55.87;;
72736;Laerm;60856;53.238;10.448;2023-04-15T13:33:34;52.00;45.84;56.28;;
72736;Laerm;60856;53.238;10.448;2023-04-15T13:36:00;53.93;45.85;57.94;;
72736;Laerm;60856;53.238;10.448;2023-04-15T13:38:25;54.06;45.93;58.80;;
72736;Laerm;60856;53.238;10.448;2023-04-15T13:40:51;56.01;45.95;60.18;;
72736;Laerm;60856;53.238;10.448;2023-04-15T13:43:16;54.86;45.88;59.06;;
72736;Laerm;60856;53.238;10.448;2023-04-15T13:45:41;56.25;45.53;61.08;;
72736;Laerm;60856;53.238;10.448;2023-04-15T13:48:07;55.92;46.01;59.08;;
72736;Laerm;60856;53.238;10.448;2023-04-15T13:50:32;54.92;45.90;60.39;;
72736;Laerm;60856;53.238;10.448;2023-04-15T13:52:57;54.27;45.94;59.55;;
72736;Laerm;60856;53.238;10.448;2023-04-15T13:55:22;48.07;45.60;56.44;;
72736;Laerm;60856;53.238;10.448;2023-04-15T13:57:48;47.50;45.35;57.62;;
72736;Laerm;60856;53.238;10.448;2023-04-15T14:00:14;55.76;46.06;62.28;;
72736;Laerm;60856;53.238;10.448;2023-04-15T14:02:39;48.38;45.44;54.40;;
72736;Laerm;60856;53.238;10.448;2023-04-15T14:05:06;47.41;45.39;56.78;;
72736;Laerm;60856;53.238;10.448;2023-04-15T14:07:31;47.10;45.49;50.52;;
72736;Laerm;60856;53.238;10.448;2023-04-15T14:09:56;47.20;45.57;50.70;;
72736;Laerm;60856;53.238;10.448;2023-04-15T14:12:21;47.25;45.55;50.79;;
72736;Laerm;60856;53.238;10.448;2023-04-15T14:14:47;47.72;45.79;51.58;;
72736;Laerm;60856;53.238;10.448;2023-04-15T14:17:12;47.17;45.47;55.48;;
72736;Laerm;60856;53.238;10.448;2023-04-15T14:19:37;48.83;45.74;55.34;;
72736;Laerm;60856;53.238;10.448;2023-04-15T14:22:03;46.90;45.29;52.11;;
72736;Laerm;60856;53.238;10.448;2023-04-15T14:24:28;46.79;45.42;53.12;;
72736;Laerm;60856;53.238;10.448;2023-04-15T14:26:53;46.76;45.54;53.49;;
72736;Laerm;60856;53.238;10.448;2023-04-15T14:29:18;48.65;45.64;59.00;;
72736;Laerm;60856;53.238;10.448;2023-04-15T14:31:44;46.97;45.40;52.05;;
72736;Laerm;60856;53.238;10.448;2023-04-15T14:34:10;46.84;45.28;50.32;;
72736;Laerm;60856;53.238;10.448;2023-04-15T14:36:35;48.26;45.59;52.78;;
72736;Laerm;60856;53.238;10.448;2023-04-15T14:39:00;47.05;45.58;50.27;;
72736;Laerm;60856;53.238;10.448;2023-04-15T14:41:26;47.43;45.47;54.71;;
72736;Laerm;60856;53.238;10.448;2023-04-15T14:43:52;47.53;45.54;51.43;;
72736;Laerm;60856;53.238;10.448;2023-04-15T14:46:17;47.75;45.63;54.43;;
72736;Laerm;60856;53.238;10.448;2023-04-15T14:48:42;47.67;45.59;54.82;;
72736;Laerm;60856;53.238;10.448;2023-04-15T14:51:08;47.73;45.30;60.47;;
72736;Laerm;60856;53.238;10.448;2023-04-15T14:53:33;47.33;45.38;54.88;;
72736;Laerm;60856;53.238;10.448;2023-04-15T14:55:58;47.98;45.88;58.69;;
72736;Laerm;60856;53.238;10.448;2023-04-15T14:58:23;47.21;45.61;51.03;;
72736;Laerm;60856;53.238;10.448;2023-04-15T15:00:49;47.58;45.58;51.94;;
72736;Laerm;60856;53.238;10.448;2023-04-15T15:03:14;47.01;45.51;53.59;;
72736;Laerm;60856;53.238;10.448;2023-04-15T15:05:43;46.84;45.48;50.04;;
72736;Laerm;60856;53.238;10.448;2023-04-15T15:08:09;46.84;45.37;50.22;;
72736;Laerm;60856;53.238;10.448;2023-04-15T15:10:35;48.10;45.41;56.81;;
72736;Laerm;60856;53.238;10.448;2023-04-15T15:13:01;48.23;45.61;54.37;;
72736;Laerm;60856;53.238;10.448;2023-04-15T15:15:27;47.05;45.45;55.05;;
72736;Laerm;60856;53.238;10.448;2023-04-15T15:17:52;48.61;45.70;56.22;;
72736;Laerm;60856;53.238;10.448;2023-04-15T15:20:27;48.26;45.52;62.05;;
72736;Laerm;60856;53.238;10.448;2023-04-15T15:22:53;47.21;45.43;59.71;;
72736;Laerm;60856;53.238;10.448;2023-04-15T15:25:18;48.92;45.59;60.70;;
72736;Laerm;60856;53.238;10.448;2023-04-15T15:27:43;47.25;45.39;52.24;;
72736;Laerm;60856;53.238;10.448;2023-04-15T15:30:09;48.93;45.57;54.82;;
72736;Laerm;60856;53.238;10.448;2023-04-15T15:32:34;47.36;45.51;53.23;;
72736;Laerm;60856;53.238;10.448;2023-04-15T15:34:59;47.04;45.51;51.39;;
72736;Laerm;60856;53.238;10.448;2023-04-15T15:37:25;46.89;45.33;51.17;;
72736;Laerm;60856;53.238;10.448;2023-04-15T15:39:50;46.86;45.30;53.74;;
72736;Laerm;60856;53.238;10.448;2023-04-15T15:42:17;47.34;45.60;52.80;;
72736;Laerm;60856;53.238;10.448;2023-04-15T15:44:43;46.93;45.31;52.88;;
72736;Laerm;60856;53.238;10.448;2023-04-15T15:47:08;47.40;45.58;54.57;;
72736;Laerm;60856;53.238;10.448;2023-04-15T15:49:33;47.60;45.89;51.24;;
72736;Laerm;60856;53.238;10.448;2023-04-15T15:51:58;47.70;45.84;54.17;;
72736;Laerm;60856;53.238;10.448;2023-04-15T15:54:23;47.75;45.88;50.82;;
72736;Laerm;60856;53.238;10.448;2023-04-15T15:56:49;47.49;45.68;56.47;;
72736;Laerm;60856;53.238;10.448;2023-04-15T15:59:14;47.95;45.39;59.14;;
72736;Laerm;60856;53.238;10.448;2023-04-15T16:01:40;49.21;45.74;62.39;;
72736;Laerm;60856;53.238;10.448;2023-04-15T16:04:05;47.92;45.61;56.29;;
72736;Laerm;60856;53.238;10.448;2023-04-15T16:06:31;48.35;45.53;61.51;;
72736;Laerm;60856;53.238;10.448;2023-04-15T16:08:56;47.08;45.58;56.87;;
72736;Laerm;60856;53.238;10.448;2023-04-15T16:11:21;47.17;45.57;51.58;;
72736;Laerm;60856;53.238;10.448;2023-04-15T16:13:47;48.63;45.65;57.82;;
72736;Laerm;60856;53.238;10.448;2023-04-15T16:16:12;47.89;45.69;57.25;;
72736;Laerm;60856;53.238;10.448;2023-04-15T16:18:37;47.27;45.64;54.08;;
72736;Laerm;60856;53.238;10.448;2023-04-15T16:21:03;47.34;45.73;51.30;;
72736;Laerm;60856;53.238;10.448;2023-04-15T16:23:28;47.10;45.63;51.30;;
72736;Laerm;60856;53.238;10.448;2023-04-15T16:25:54;46.97;45.47;51.31;;
72736;Laerm;60856;53.238;10.448;2023-04-15T16:28:20;46.83;45.57;54.13;;
72736;Laerm;60856;53.238;10.448;2023-04-15T16:30:45;47.01;45.37;59.43;;
72736;Laerm;60856;53.238;10.448;2023-04-15T16:33:11;47.43;45.60;56.10;;
72736;Laerm;60856;53.238;10.448;2023-04-15T16:35:36;48.07;45.58;56.51;;
72736;Laerm;60856;53.238;10.448;2023-04-15T16:38:01;47.96;45.41;60.74;;
72736;Laerm;60856;53.238;10.448;2023-04-15T16:40:27;46.95;45.54;51.81;;
72736;Laerm;60856;53.238;10.448;2023-04-15T16:42:52;47.67;45.60;58.10;;
72736;Laerm;60856;53.238;10.448;2023-04-15T16:45:17;48.30;45.47;55.43;;
72736;Laerm;60856;53.238;10.448;2023-04-15T16:47:42;47.12;45.61;52.81;;
72736;Laerm;60856;53.238;10.448;2023-04-15T16:50:08;46.86;45.37;50.34;;
72736;Laerm;60856;53.238;10.448;2023-04-15T16:52:35;47.12;45.45;51.89;;
72736;Laerm;60856;53.238;10.448;2023-04-15T16:55:00;47.13;45.45;59.16;;
72736;Laerm;60856;53.238;10.448;2023-04-15T16:57:25;46.84;45.33;52.89;;
72736;Laerm;60856;53.238;10.448;2023-04-15T16:59:51;47.63;45.56;58.85;;
72736;Laerm;60856;53.238;10.448;2023-04-15T17:02:16;47.49;45.51;57.30;;
72736;Laerm;60856;53.238;10.448;2023-04-15T17:04:41;48.10;45.52;53.48;;
72736;Laerm;60856;53.238;10.448;2023-04-15T17:07:06;47.17;45.73;53.90;;
72736;Laerm;60856;53.238;10.448;2023-04-15T17:09:33;47.30;45.63;55.20;;
72736;Laerm;60856;53.238;10.448;2023-04-15T17:11:58;47.61;45.40;54.66;;
72736;Laerm;60856;53.238;10.448;2023-04-15T17:14:23;48.81;45.76;60.73;;
72736;Laerm;60856;53.238;10.448;2023-04-15T17:16:48;48.62;45.69;60.50;;
72736;Laerm;60856;53.238;10.448;2023-04-15T17:19:14;47.86;45.44;57.33;;
72736;Laerm;60856;53.238;10.448;2023-04-15T17:21:39;48.28;45.78;56.15;;
72736;Laerm;60856;53.238;10.448;2023-04-15T17:24:04;47.32;45.52;54.06;;
72736;Laerm;60856;53.238;10.448;2023-04-15T17:26:30;46.94;45.55;55.52;;
72736;Laerm;60856;53.238;10.448;2023-04-15T17:28:55;47.75;45.53;58.50;;
72736;Laerm;60856;53.238;10.448;2023-04-15T17:31:21;47.20;45.46;65.01;;
72736;Laerm;60856;53.238;10.448;2023-04-15T17:33:46;47.40;45.67;51.43;;
72736;Laerm;60856;53.238;10.448;2023-04-15T17:36:11;46.94;45.35;51.81;;
72736;Laerm;60856;53.238;10.448;2023-04-15T17:38:36;47.89;45.38;57.86;;
72736;Laerm;60856;53.238;10.448;2023-04-15T17:41:02;47.89;45.56;55.25;;
72736;Laerm;60856;53.238;10.448;2023-04-15T17:43:27;47.25;45.64;52.55;;
72736;Laerm;60856;53.238;10.448;2023-04-15T17:45:52;47.06;45.45;54.36;;
72736;Laerm;60856;53.238;10.448;2023-04-15T17:48:17;50.21;45.61;64.40;;
72736;Laerm;60856;53.238;10.448;2023-04-15T17:50:43;47.55;45.50;54.47;;
72736;Laerm;60856;53.238;10.448;2023-04-15T17:53:08;47.64;45.51;54.10;;
72736;Laerm;60856;53.238;10.448;2023-04-15T17:55:33;48.18;45.65;53.38;;
72736;Laerm;60856;53.238;10.448;2023-04-15T17:57:59;46.86;45.53;49.94;;
72736;Laerm;60856;53.238;10.448;2023-04-15T18:00:24;47.11;45.50;52.19;;
72736;Laerm;60856;53.238;10.448;2023-04-15T18:02:49;47.47;45.45;52.58;;
72736;Laerm;60856;53.238;10.448;2023-04-15T18:05:15;47.03;45.44;52.56;;
72736;Laerm;60856;53.238;10.448;2023-04-15T18:07:40;46.90;45.41;55.11;;
72736;Laerm;60856;53.238;10.448;2023-04-15T18:10:06;46.97;45.55;50.19;;
72736;Laerm;60856;53.238;10.448;2023-04-15T18:12:31;47.38;45.47;57.41;;
72736;Laerm;60856;53.238;10.448;2023-04-15T18:14:56;47.39;45.50;55.96;;
72736;Laerm;60856;53.238;10.448;2023-04-15T18:17:22;47.25;45.36;52.44;;
72736;Laerm;60856;53.238;10.448;2023-04-15T18:19:47;46.89;45.47;49.99;;
72736;Laerm;60856;53.238;10.448;2023-04-15T18:22:12;48.56;45.49;52.84;;